createdAt,value
2018-05-17T00:01:49.824Z,100254.13
2018-05-17T00:04:17.240Z,100240.48
2018-05-17T00:06:44.639Z,100232.29
2018-05-17T00:09:12.044Z,100224.46
2018-05-17T00:11:39.482Z,100214.23
2018-05-17T00:14:07.072Z,100210.52
2018-05-17T00:16:34.456Z,100211.02
2018-05-17T00:19:01.857Z,100202.84
2018-05-17T00:21:29.566Z,100197.02
2018-05-17T00:23:56.992Z,100203.33
2018-05-17T00:26:24.446Z,100200.14
2018-05-17T00:28:51.869Z,100191.22
2018-05-17T00:31:19.247Z,100200.38
2018-05-17T00:33:46.671Z,100211.38
2018-05-17T00:36:14.106Z,100196.59
2018-05-17T00:38:41.581Z,100200.25
2018-05-17T00:41:08.976Z,100209.06
2018-05-17T00:43:36.379Z,100207.55
2018-05-17T00:46:03.797Z,100203.76
2018-05-17T00:48:33.839Z,100192.81
2018-05-17T00:51:01.725Z,100186.89
2018-05-17T00:53:31.769Z,100181.98
2018-05-17T00:55:59.160Z,100179.02
2018-05-17T00:58:26.567Z,100173.80
2018-05-17T01:00:53.985Z,100179.45
2018-05-17T01:03:21.387Z,100180.38
2018-05-17T01:05:48.790Z,100170.41
2018-05-17T01:08:16.184Z,100167.67
2018-05-17T01:10:43.591Z,100169.39
2018-05-17T01:13:10.997Z,100177.73
2018-05-17T01:15:38.405Z,100182.78
2018-05-17T01:18:05.812Z,100191.00
2018-05-17T01:20:33.219Z,100186.75
2018-05-17T01:23:01.163Z,100169.86
2018-05-17T01:25:28.561Z,100171.35
2018-05-17T01:27:55.972Z,100168.19
2018-05-17T01:30:23.405Z,100165.81
2018-05-17T01:32:50.785Z,100167.02
2018-05-17T01:35:18.178Z,100170.05
2018-05-17T01:37:57.405Z,100167.14
2018-05-17T01:40:25.177Z,100165.70
2018-05-17T01:42:52.624Z,100168.92
2018-05-17T01:45:20.019Z,100170.56
2018-05-17T01:47:47.410Z,100170.11
2018-05-17T01:50:14.812Z,100170.78
2018-05-17T01:52:42.203Z,100174.17
2018-05-17T01:55:09.675Z,100167.03
2018-05-17T01:57:37.070Z,100173.48
2018-05-17T02:00:04.489Z,100173.48
2018-05-17T02:02:31.915Z,100172.56
2018-05-17T02:04:59.324Z,100173.46
2018-05-17T02:07:26.708Z,100179.20
2018-05-17T02:09:54.113Z,100179.53
2018-05-17T02:12:21.502Z,100183.70
2018-05-17T02:14:48.895Z,100184.39
2018-05-17T02:17:16.278Z,100179.22
2018-05-17T02:19:43.679Z,100178.86
2018-05-17T02:22:11.067Z,100182.48
2018-05-17T02:24:38.488Z,100176.37
2018-05-17T02:27:05.883Z,100182.09
2018-05-17T02:29:33.288Z,100183.02
2018-05-17T02:32:00.680Z,100186.55
2018-05-17T02:34:28.075Z,100177.27
2018-05-17T02:36:55.477Z,100178.98
2018-05-17T02:39:22.872Z,100179.53
2018-05-17T02:41:50.263Z,100181.55
2018-05-17T02:44:17.659Z,100180.93
2018-05-17T02:46:45.141Z,100181.08
2018-05-17T02:49:12.519Z,100185.29
2018-05-17T02:51:39.871Z,100186.15
2018-05-17T02:54:07.384Z,100187.04
2018-05-17T02:56:34.755Z,100186.53
2018-05-17T02:59:02.371Z,100188.38
2018-05-17T03:01:29.885Z,100184.28
2018-05-17T03:03:57.310Z,100182.48
2018-05-17T03:06:24.712Z,100185.45
2018-05-17T03:08:52.128Z,100190.08
2018-05-17T03:11:19.528Z,100197.02
2018-05-17T03:13:46.928Z,100202.55
2018-05-17T03:16:14.335Z,100205.75
2018-05-17T03:18:41.761Z,100202.44
2018-05-17T03:21:09.158Z,100199.45
2018-05-17T03:23:36.552Z,100204.72
2018-05-17T03:26:03.952Z,100200.69
2018-05-17T03:28:32.357Z,100200.05
2018-05-17T03:30:59.829Z,100194.73
2018-05-17T03:33:27.296Z,100196.89
2018-05-17T03:35:54.691Z,100195.94
2018-05-17T03:38:22.116Z,100196.93
2018-05-17T03:40:49.521Z,100197.84
2018-05-17T03:43:16.916Z,100207.27
2018-05-17T03:45:44.355Z,100215.54
2018-05-17T03:48:11.743Z,100215.34
2018-05-17T03:50:39.172Z,100211.12
2018-05-17T03:53:06.635Z,100212.97
2018-05-17T03:55:34.031Z,100220.63
2018-05-17T03:58:01.436Z,100219.14
2018-05-17T04:00:40.615Z,100222.48
2018-05-17T04:03:19.905Z,100225.28
2018-05-17T04:05:59.120Z,100220.81
2018-05-17T04:08:26.541Z,100222.47
2018-05-17T04:10:53.906Z,100220.33
2018-05-17T04:13:21.289Z,100219.05
2018-05-17T04:15:48.695Z,100222.91
2018-05-17T04:18:16.082Z,100224.66
2018-05-17T04:20:43.479Z,100231.08
2018-05-17T04:23:10.872Z,100224.76
2018-05-17T04:25:38.455Z,100227.09
2018-05-17T04:28:05.858Z,100229.52
2018-05-17T04:30:33.242Z,100226.64
2018-05-17T04:33:00.685Z,100232.08
2018-05-17T04:35:28.074Z,100234.27
2018-05-17T04:37:55.461Z,100244.97
2018-05-17T04:40:22.928Z,100244.43
2018-05-17T04:42:50.265Z,100249.48
2018-05-17T04:45:17.672Z,100258.84
2018-05-17T04:47:45.067Z,100253.00
2018-05-17T04:50:12.494Z,100258.04
2018-05-17T04:52:39.944Z,100260.40
2018-05-17T04:55:07.331Z,100261.53
2018-05-17T04:57:34.711Z,100271.70
2018-05-17T05:00:02.833Z,100280.03
2018-05-17T05:02:30.456Z,100279.67
2018-05-17T05:04:57.859Z,100277.94
2018-05-17T05:07:25.255Z,100270.44
2018-05-17T05:09:52.646Z,100270.55
2018-05-17T05:12:20.034Z,100275.38
2018-05-17T05:14:47.423Z,100275.91
2018-05-17T05:17:14.813Z,100278.69
2018-05-17T05:19:42.589Z,100279.65
2018-05-17T05:22:10.331Z,100286.22
2018-05-17T05:24:37.739Z,100288.65
2018-05-17T05:27:05.131Z,100289.17
2018-05-17T05:29:33.092Z,100286.92
2018-05-17T05:32:00.528Z,100295.00
2018-05-17T05:34:27.901Z,100289.98
2018-05-17T05:36:55.297Z,100291.25
2018-05-17T05:39:22.682Z,100290.67
2018-05-17T05:41:50.079Z,100290.88
2018-05-17T05:44:17.462Z,100293.88
2018-05-17T05:46:44.866Z,100295.66
2018-05-17T05:49:12.298Z,100296.05
2018-05-17T05:51:39.659Z,100300.81
2018-05-17T05:54:07.050Z,100303.42
2018-05-17T05:56:34.478Z,100307.87
2018-05-17T05:59:01.872Z,100310.38
2018-05-17T06:01:29.278Z,100306.74
2018-05-17T06:03:56.687Z,100307.14
2018-05-17T06:06:24.082Z,100314.23
2018-05-17T06:08:51.462Z,100320.87
2018-05-17T06:11:18.860Z,100318.91
2018-05-17T06:13:46.241Z,100328.07
2018-05-17T06:16:13.645Z,100329.88
2018-05-17T06:18:41.343Z,100337.70
2018-05-17T06:21:08.751Z,100339.03
2018-05-17T06:23:36.128Z,100347.53
2018-05-17T06:26:04.305Z,100343.69
2018-05-17T06:28:31.711Z,100346.98
2018-05-17T06:30:59.097Z,100345.75
2018-05-17T06:33:26.483Z,100347.33
2018-05-17T06:35:53.892Z,100350.26
2018-05-17T06:38:21.297Z,100354.78
2018-05-17T06:40:48.696Z,100351.27
2018-05-17T06:43:16.073Z,100353.03
2018-05-17T06:45:43.465Z,100350.67
2018-05-17T06:48:10.842Z,100352.02
2018-05-17T06:50:38.236Z,100355.28
2018-05-17T06:53:05.612Z,100354.95
2018-05-17T06:55:33.419Z,100358.05
2018-05-17T06:58:00.811Z,100356.72
2018-05-17T07:00:28.229Z,100368.36
2018-05-17T07:02:55.588Z,100365.59
2018-05-17T07:05:22.971Z,100371.36
2018-05-17T07:07:50.372Z,100365.90
2018-05-17T07:10:17.772Z,100367.28
2018-05-17T07:12:45.153Z,100368.37
2018-05-17T07:15:12.542Z,100372.66
2018-05-17T07:17:39.948Z,100372.38
2018-05-17T07:20:07.449Z,100375.87
2018-05-17T07:22:34.830Z,100381.70
2018-05-17T07:25:02.307Z,100379.50
2018-05-17T07:27:29.854Z,100381.89
2018-05-17T07:29:57.410Z,100376.40
2018-05-17T07:32:24.775Z,100381.95
2018-05-17T07:34:52.147Z,100391.42
2018-05-17T07:37:19.533Z,100390.61
2018-05-17T07:39:46.939Z,100388.05
2018-05-17T07:42:14.329Z,100394.64
2018-05-17T07:44:41.708Z,100402.16
2018-05-17T07:47:09.103Z,100403.23
2018-05-17T07:49:36.465Z,100411.54
2018-05-17T07:52:03.874Z,100403.73
2018-05-17T07:54:31.259Z,100406.97
2018-05-17T07:56:58.675Z,100406.50
2018-05-17T07:59:26.065Z,100403.83
2018-05-17T08:01:53.533Z,100406.09
2018-05-17T08:04:20.830Z,100401.00
2018-05-17T08:06:48.214Z,100408.27
2018-05-17T08:09:15.594Z,100419.39
2018-05-17T08:11:43.003Z,100412.65
2018-05-17T08:14:10.391Z,100407.94
2018-05-17T08:16:37.785Z,100407.25
2018-05-17T08:19:05.181Z,100415.32
2018-05-17T08:21:32.580Z,100420.36
2018-05-17T08:23:59.968Z,100416.98
2018-05-17T08:26:27.350Z,100418.69
2018-05-17T08:28:54.795Z,100417.89
2018-05-17T08:31:22.161Z,100415.25
2018-05-17T08:33:49.537Z,100419.48
2018-05-17T08:36:17.014Z,100421.42
2018-05-17T08:38:44.307Z,100423.16
2018-05-17T08:41:11.752Z,100431.52
2018-05-17T08:43:39.132Z,100431.20
2018-05-17T08:46:06.509Z,100433.72
2018-05-17T08:48:34.038Z,100440.05
2018-05-17T08:51:01.430Z,100430.99
2018-05-17T08:53:28.825Z,100437.14
2018-05-17T08:55:56.207Z,100439.33
2018-05-17T08:58:23.616Z,100442.80
2018-05-17T09:00:50.990Z,100439.31
2018-05-17T09:03:18.375Z,100440.39
2018-05-17T09:05:45.760Z,100440.27
2018-05-17T09:08:13.147Z,100435.09
2018-05-17T09:10:40.528Z,100437.92
2018-05-17T09:13:07.937Z,100434.58
2018-05-17T09:15:35.322Z,100443.66
2018-05-17T09:18:02.715Z,100440.21
2018-05-17T09:20:30.368Z,100443.86
2018-05-17T09:22:57.661Z,100448.56
2018-05-17T09:25:25.245Z,100448.51
2018-05-17T09:27:52.635Z,100444.66
2018-05-17T09:30:20.035Z,100447.48
2018-05-17T09:32:47.424Z,100445.55
2018-05-17T09:35:14.812Z,100448.06
2018-05-17T09:37:42.195Z,100444.28
2018-05-17T09:40:09.574Z,100441.13
2018-05-17T09:42:36.984Z,100445.53
2018-05-17T09:45:04.372Z,100443.37
2018-05-17T09:47:31.849Z,100441.44
2018-05-17T09:49:59.171Z,100442.48
2018-05-17T09:52:26.554Z,100440.23
2018-05-17T09:54:53.952Z,100440.42
2018-05-17T09:57:21.317Z,100443.14
2018-05-17T09:59:48.695Z,100443.11
2018-05-17T10:02:16.079Z,100438.62
2018-05-17T10:04:43.454Z,100436.14
2018-05-17T10:07:10.864Z,100435.77
2018-05-17T10:09:38.250Z,100446.80
2018-05-17T10:12:06.091Z,100437.72
2018-05-17T10:14:34.522Z,100444.06
2018-05-17T10:17:01.827Z,100438.73
2018-05-17T10:19:29.223Z,100443.40
2018-05-17T10:21:56.595Z,100448.67
2018-05-17T10:24:23.985Z,100433.84
2018-05-17T10:26:52.306Z,100428.39
2018-05-17T10:29:20.300Z,100431.62
2018-05-17T10:31:47.669Z,100428.86
2018-05-17T10:34:15.118Z,100429.11
2018-05-17T10:36:42.492Z,100421.08
2018-05-17T10:39:09.894Z,100420.90
2018-05-17T10:41:37.271Z,100425.68
2018-05-17T10:44:04.659Z,100433.08
2018-05-17T10:46:32.340Z,100423.22
2018-05-17T10:48:59.814Z,100424.81
2018-05-17T10:51:27.136Z,100423.27
2018-05-17T10:53:54.526Z,100420.36
2018-05-17T10:56:21.931Z,100424.74
2018-05-17T10:58:49.322Z,100430.89
2018-05-17T11:01:16.713Z,100430.46
2018-05-17T11:03:44.108Z,100431.47
2018-05-17T11:06:11.509Z,100433.11
2018-05-17T11:08:38.933Z,100438.14
2018-05-17T11:11:06.335Z,100434.45
2018-05-17T11:13:34.712Z,100436.11
2018-05-17T11:16:02.100Z,100438.18
2018-05-17T11:18:29.503Z,100434.97
2018-05-17T11:20:56.905Z,100428.27
2018-05-17T11:23:24.283Z,100435.62
2018-05-17T11:25:51.757Z,100438.99
2018-05-17T11:28:19.064Z,100441.67
2018-05-17T11:30:46.456Z,100437.09
2018-05-17T11:33:13.841Z,100442.11
2018-05-17T11:35:41.246Z,100439.81
2018-05-17T11:38:08.618Z,100438.30
2018-05-17T11:40:36.004Z,100446.95
2018-05-17T11:43:03.399Z,100437.67
2018-05-17T11:45:30.788Z,100432.36
2018-05-17T11:47:58.176Z,100434.25
2018-05-17T11:50:25.580Z,100435.68
2018-05-17T11:52:52.952Z,100428.13
2018-05-17T11:55:20.359Z,100434.27
2018-05-17T11:57:47.748Z,100429.69
2018-05-17T12:00:15.514Z,100431.41
2018-05-17T12:02:42.939Z,100427.31
2018-05-17T12:05:10.281Z,100427.31
2018-05-17T12:07:37.745Z,100429.01
2018-05-17T12:10:05.046Z,100430.88
2018-05-17T12:12:32.440Z,100436.69
2018-05-17T12:14:59.846Z,100425.64
2018-05-17T12:17:27.224Z,100428.21
2018-05-17T12:19:54.617Z,100426.91
2018-05-17T12:22:21.994Z,100425.63
2018-05-17T12:24:49.584Z,100428.81
2018-05-17T12:27:16.971Z,100421.89
2018-05-17T12:29:44.377Z,100418.86
2018-05-17T12:32:11.756Z,100410.09
2018-05-17T12:34:39.191Z,100411.98
2018-05-17T12:37:06.703Z,100414.01
2018-05-17T12:39:34.163Z,100410.13
2018-05-17T12:42:01.555Z,100414.02
2018-05-17T12:44:29.047Z,100407.03
2018-05-17T12:46:56.617Z,100401.36
2018-05-17T12:49:24.027Z,100404.84
2018-05-17T12:51:51.419Z,100399.67
2018-05-17T12:54:18.805Z,100405.31
2018-05-17T12:56:46.238Z,100405.64
2018-05-17T12:59:13.580Z,100399.81
2018-05-17T13:01:40.969Z,100404.30
2018-05-17T13:04:08.363Z,100404.81
2018-05-17T13:06:35.755Z,100409.55
2018-05-17T13:09:03.137Z,100404.13
2018-05-17T13:11:30.519Z,100400.72
2018-05-17T13:13:57.899Z,100403.23
2018-05-17T13:16:25.383Z,100402.73
2018-05-17T13:18:52.759Z,100401.08
2018-05-17T13:21:20.162Z,100400.50
2018-05-17T13:23:47.556Z,100389.64
2018-05-17T13:26:14.938Z,100395.04
2018-05-17T13:28:42.323Z,100390.63
2018-05-17T13:31:09.726Z,100383.59
2018-05-17T13:33:37.130Z,100386.40
2018-05-17T13:36:05.410Z,100393.52
2018-05-17T13:38:32.790Z,100385.16
2018-05-17T13:41:00.175Z,100380.05
2018-05-17T13:43:27.561Z,100381.53
2018-05-17T13:45:54.951Z,100386.44
2018-05-17T13:48:22.342Z,100377.44
2018-05-17T13:50:49.725Z,100377.93
2018-05-17T13:53:17.122Z,100377.78
2018-05-17T13:55:44.516Z,100379.34
2018-05-17T13:58:11.903Z,100377.92
2018-05-17T14:00:39.500Z,100379.69
2018-05-17T14:03:06.934Z,100383.78
2018-05-17T14:05:34.373Z,100384.00
2018-05-17T14:08:01.769Z,100391.05
2018-05-17T14:10:29.158Z,100394.05
2018-05-17T14:12:56.955Z,100391.16
2018-05-17T14:15:24.424Z,100389.81
2018-05-17T14:17:51.739Z,100382.64
2018-05-17T14:20:19.134Z,100381.70
2018-05-17T14:22:46.524Z,100366.23
2018-05-17T14:25:13.905Z,100379.59
2018-05-17T14:27:41.314Z,100383.22
2018-05-17T14:30:08.715Z,100380.16
2018-05-17T14:32:36.094Z,100374.25
2018-05-17T14:35:03.491Z,100377.34
2018-05-17T14:37:30.944Z,100372.95
2018-05-17T14:39:58.335Z,100369.19
2018-05-17T14:42:25.734Z,100374.59
2018-05-17T14:44:53.109Z,100363.20
2018-05-17T14:47:20.488Z,100366.09
2018-05-17T14:49:47.876Z,100367.86
2018-05-17T14:52:15.268Z,100363.64
2018-05-17T14:54:42.660Z,100368.05
2018-05-17T14:57:10.041Z,100366.55
2018-05-17T14:59:37.429Z,100371.02
2018-05-17T15:02:05.723Z,100368.31
2018-05-17T15:04:33.187Z,100363.33
2018-05-17T15:07:00.578Z,100363.95
2018-05-17T15:09:27.976Z,100364.13
2018-05-17T15:11:55.391Z,100365.80
2018-05-17T15:14:22.754Z,100365.13
2018-05-17T15:16:50.145Z,100363.09
2018-05-17T15:19:17.555Z,100359.83
2018-05-17T15:21:45.024Z,100361.42
2018-05-17T15:24:12.422Z,100366.19
2018-05-17T15:26:39.812Z,100359.51
2018-05-17T15:29:07.196Z,100358.73
2018-05-17T15:31:34.763Z,100355.94
2018-05-17T15:34:02.149Z,100360.47
2018-05-17T15:36:29.596Z,100358.19
2018-05-17T15:38:56.999Z,100363.02
2018-05-17T15:41:24.400Z,100360.55
2018-05-17T15:43:51.796Z,100363.22
2018-05-17T15:46:19.183Z,100364.03
2018-05-17T15:48:46.799Z,100361.22
2018-05-17T15:51:14.229Z,100357.72
2018-05-17T15:53:41.648Z,100355.53
2018-05-17T15:56:09.028Z,100349.52
2018-05-17T15:58:37.116Z,100344.37
2018-05-17T16:01:05.317Z,100350.17
2018-05-17T16:03:32.928Z,100354.09
2018-05-17T16:06:00.594Z,100348.56
2018-05-17T16:08:28.276Z,100337.07
2018-05-17T16:10:55.706Z,100346.30
2018-05-17T16:13:23.095Z,100345.27
2018-05-17T16:15:50.487Z,100344.28
2018-05-17T16:18:17.879Z,100347.98
2018-05-17T16:20:45.267Z,100348.25
2018-05-17T16:23:12.693Z,100350.06
2018-05-17T16:25:40.093Z,100355.73
2018-05-17T16:28:07.497Z,100364.70
2018-05-17T16:30:34.895Z,100361.92
2018-05-17T16:33:02.307Z,100361.45
2018-05-17T16:35:29.717Z,100360.59
2018-05-17T16:37:57.097Z,100358.94
2018-05-17T16:40:24.503Z,100352.02
2018-05-17T16:42:51.946Z,100367.51
2018-05-17T16:45:19.283Z,100362.06
2018-05-17T16:47:46.667Z,100361.20
2018-05-17T16:50:14.108Z,100372.08
2018-05-17T16:52:41.606Z,100370.28
2018-05-17T16:55:08.879Z,100368.97
2018-05-17T16:57:36.283Z,100366.84
2018-05-17T17:00:03.663Z,100375.09
2018-05-17T17:02:31.050Z,100373.78
2018-05-17T17:04:58.660Z,100374.20
2018-05-17T17:07:26.038Z,100375.09
2018-05-17T17:09:53.668Z,100378.98
2018-05-17T17:12:21.213Z,100378.91
2018-05-17T17:14:48.588Z,100374.18
2018-05-17T17:17:16.063Z,100377.61
2018-05-17T17:19:43.458Z,100383.52
2018-05-17T17:22:10.856Z,100376.72
2018-05-17T17:24:38.234Z,100381.83
2018-05-17T17:27:06.282Z,100380.38
2018-05-17T17:29:33.773Z,100375.66
2018-05-17T17:32:01.161Z,100381.21
2018-05-17T17:34:28.556Z,100380.33
2018-05-17T17:36:56.023Z,100382.93
2018-05-17T17:39:23.398Z,100379.48
2018-05-17T17:41:50.907Z,100378.12
2018-05-17T17:44:18.299Z,100377.81
2018-05-17T17:46:45.685Z,100380.47
2018-05-17T17:49:13.071Z,100385.23
2018-05-17T17:51:40.555Z,100379.42
2018-05-17T17:54:08.012Z,100383.78
2018-05-17T17:56:36.387Z,100379.21
2018-05-17T17:59:03.768Z,100387.38
2018-05-17T18:01:31.159Z,100385.92
2018-05-17T18:03:58.546Z,100385.20
2018-05-17T18:06:26.040Z,100384.17
2018-05-17T18:08:53.428Z,100383.29
2018-05-17T18:11:20.811Z,100390.25
2018-05-17T18:13:48.197Z,100390.70
2018-05-17T18:16:15.653Z,100397.65
2018-05-17T18:18:43.037Z,100396.31
2018-05-17T18:21:10.427Z,100399.55
2018-05-17T18:23:37.800Z,100398.05
2018-05-17T18:26:05.199Z,100403.05
2018-05-17T18:28:32.596Z,100405.53
2018-05-17T18:30:59.980Z,100402.34
2018-05-17T18:33:27.451Z,100407.08
2018-05-17T18:35:54.849Z,100410.40
2018-05-17T18:38:22.230Z,100408.62
2018-05-17T18:40:49.639Z,100415.88
2018-05-17T18:43:17.088Z,100421.66
2018-05-17T18:45:44.402Z,100419.05
2018-05-17T18:48:11.791Z,100427.20
2018-05-17T18:50:39.179Z,100428.09
2018-05-17T18:53:06.685Z,100430.13
2018-05-17T18:55:34.067Z,100433.32
2018-05-17T18:58:01.452Z,100433.56
2018-05-17T19:00:29.020Z,100432.66
2018-05-17T19:02:56.418Z,100440.44
2018-05-17T19:05:23.812Z,100439.14
2018-05-17T19:07:51.543Z,100441.75
2018-05-17T19:10:18.943Z,100449.05
2018-05-17T19:12:46.346Z,100452.16
2018-05-17T19:15:13.848Z,100454.05
2018-05-17T19:17:41.271Z,100452.81
2018-05-17T19:20:08.650Z,100462.06
2018-05-17T19:22:36.768Z,100462.49
2018-05-17T19:25:04.157Z,100475.41
2018-05-17T19:27:31.547Z,100471.63
2018-05-17T19:29:58.970Z,100471.25
2018-05-17T19:32:26.713Z,100475.34
2018-05-17T19:34:54.228Z,100479.84
2018-05-17T19:37:21.738Z,100481.99
2018-05-17T19:39:49.043Z,100489.97
2018-05-17T19:42:16.424Z,100486.53
2018-05-17T19:44:44.041Z,100484.84
2018-05-17T19:47:11.430Z,100488.05
2018-05-17T19:49:38.824Z,100492.03
2018-05-17T19:52:06.897Z,100495.10
2018-05-17T19:54:34.310Z,100493.92
2018-05-17T19:57:01.683Z,100494.78
2018-05-17T19:59:29.119Z,100499.70
2018-05-17T20:01:56.455Z,100499.75
2018-05-17T20:04:23.900Z,100500.05
2018-05-17T20:06:51.275Z,100498.98
2018-05-17T20:09:18.673Z,100499.36
2018-05-17T20:11:46.064Z,100500.23
2018-05-17T20:14:13.454Z,100504.38
2018-05-17T20:16:40.885Z,100494.92
2018-05-17T20:19:08.240Z,100497.30
2018-05-17T20:21:35.625Z,100505.93
2018-05-17T20:24:03.015Z,100507.14
2018-05-17T20:26:30.402Z,100505.95
2018-05-17T20:28:57.876Z,100512.02
2018-05-17T20:31:25.263Z,100515.88
2018-05-17T20:33:52.960Z,100525.11
2018-05-17T20:36:20.448Z,100519.48
2018-05-17T20:38:47.850Z,100515.72
2018-05-17T20:41:15.272Z,100520.67
2018-05-17T20:43:42.664Z,100517.11
2018-05-17T20:46:10.054Z,100522.43
2018-05-17T20:48:37.441Z,100519.32
2018-05-17T20:51:04.889Z,100518.72
2018-05-17T20:53:32.351Z,100530.55
2018-05-17T20:55:59.740Z,100532.56
2018-05-17T20:58:27.186Z,100532.04
2018-05-17T21:00:54.590Z,100526.89
2018-05-17T21:03:21.980Z,100530.12
2018-05-17T21:05:49.359Z,100529.58
2018-05-17T21:08:16.754Z,100533.08
2018-05-17T21:10:44.243Z,100532.94
2018-05-17T21:13:11.698Z,100534.36
2018-05-17T21:15:39.154Z,100535.83
2018-05-17T21:18:07.339Z,100539.27
2018-05-17T21:20:34.720Z,100536.80
2018-05-17T21:23:02.110Z,100546.72
2018-05-17T21:25:29.505Z,100542.27
2018-05-17T21:27:56.886Z,100547.41
2018-05-17T21:30:24.265Z,100542.42
2018-05-17T21:32:51.650Z,100548.31
2018-05-17T21:35:19.079Z,100542.85
2018-05-17T21:37:46.466Z,100544.66
2018-05-17T21:40:13.855Z,100544.66
2018-05-17T21:42:41.252Z,100542.02
2018-05-17T21:45:08.644Z,100548.16
2018-05-17T21:47:36.129Z,100553.69
2018-05-17T21:50:03.582Z,100553.67
2018-05-17T21:52:31.032Z,100543.39
2018-05-17T21:54:58.435Z,100546.64
2018-05-17T21:57:25.813Z,100542.35
2018-05-17T21:59:53.444Z,100543.44
2018-05-17T22:02:20.996Z,100545.70
2018-05-17T22:04:48.371Z,100546.88
2018-05-17T22:07:15.773Z,100543.62
2018-05-17T22:09:48.547Z,100540.06
2018-05-17T22:12:15.930Z,100544.77
2018-05-17T22:14:43.716Z,100544.69
2018-05-17T22:17:11.145Z,100548.09
2018-05-17T22:19:38.527Z,100554.26
2018-05-17T22:22:05.918Z,100552.30
2018-05-17T22:24:33.308Z,100555.02
2018-05-17T22:27:00.776Z,100552.86
2018-05-17T22:29:28.228Z,100549.68
2018-05-17T22:31:55.612Z,100555.44
2018-05-17T22:34:23.004Z,100552.48
2018-05-17T22:36:50.422Z,100556.78
2018-05-17T22:39:17.774Z,100553.23
2018-05-17T22:41:45.317Z,100551.80
2018-05-17T22:44:12.703Z,100550.64
2018-05-17T22:46:40.339Z,100551.57
2018-05-17T22:49:07.737Z,100550.64
2018-05-17T22:51:35.176Z,100553.26
2018-05-17T22:54:02.556Z,100556.86
2018-05-17T22:56:41.882Z,100554.78
2018-05-17T22:59:09.280Z,100559.47
2018-05-17T23:01:37.705Z,100561.70
2018-05-17T23:04:05.111Z,100551.89
2018-05-17T23:06:32.526Z,100562.60
2018-05-17T23:08:59.952Z,100567.76
2018-05-17T23:11:27.344Z,100569.39
2018-05-17T23:13:55.002Z,100561.19
2018-05-17T23:16:22.508Z,100562.91
2018-05-17T23:18:49.905Z,100559.55
2018-05-17T23:21:17.286Z,100565.53
2018-05-17T23:23:44.676Z,100558.04
2018-05-17T23:26:12.051Z,100565.17
2018-05-17T23:28:39.482Z,100557.94
2018-05-17T23:31:07.897Z,100564.08
2018-05-17T23:33:35.282Z,100560.80
2018-05-17T23:36:02.702Z,100562.59
2018-05-17T23:38:30.092Z,100563.36
2018-05-17T23:41:10.179Z,100558.23
2018-05-17T23:43:37.938Z,100552.06
2018-05-17T23:46:05.319Z,100555.30
2018-05-17T23:48:32.702Z,100555.04
2018-05-17T23:51:00.095Z,100555.73
2018-05-17T23:53:27.483Z,100559.77
2018-05-17T23:55:54.865Z,100555.20
2018-05-17T23:58:22.250Z,100558.13
